createdAt,value
2023-06-20T00:02:47.576Z,20.67
2023-06-20T00:12:49.205Z,20.41
2023-06-20T00:22:50.820Z,20.27
2023-06-20T00:32:52.524Z,19.91
2023-06-20T00:42:54.134Z,19.74
2023-06-20T00:52:55.802Z,19.93
2023-06-20T01:02:57.595Z,19.95
2023-06-20T01:12:59.069Z,19.81
2023-06-20T01:23:00.717Z,19.77
2023-06-20T01:33:02.320Z,19.51
2023-06-20T01:43:03.805Z,19.25
2023-06-20T01:53:05.700Z,19.40
2023-06-20T02:03:07.067Z,19.11
2023-06-20T02:13:08.518Z,19.27
2023-06-20T02:23:10.073Z,18.93
2023-06-20T02:33:11.614Z,19.09
2023-06-20T02:43:13.114Z,18.81
2023-06-20T02:53:14.670Z,18.52
2023-06-20T03:03:16.272Z,18.51
2023-06-20T03:13:17.663Z,18.42
2023-06-20T03:23:19.155Z,18.29
2023-06-20T03:33:20.672Z,18.65
2023-06-20T03:43:22.182Z,18.46
2023-06-20T03:53:23.726Z,18.81
2023-06-20T04:03:25.330Z,18.78
2023-06-20T04:33:29.860Z,19.77
2023-06-20T04:43:31.452Z,20.37
2023-06-20T04:53:33.079Z,21.09
2023-06-20T05:03:34.839Z,21.75
2023-06-20T05:13:36.730Z,22.79
2023-06-20T05:23:38.871Z,24.08
2023-06-20T05:33:41.152Z,24.82
2023-06-20T05:43:43.562Z,26.10
2023-06-20T05:53:46.172Z,26.26
2023-06-20T06:03:49.228Z,27.88
2023-06-20T06:23:54.650Z,30.14
2023-06-20T06:33:59.055Z,30.25
2023-06-20T06:44:01.054Z,31.27
2023-06-20T06:54:04.310Z,33.30
2023-06-20T07:04:07.962Z,32.90
2023-06-20T11:31:13.824Z,30.00
2023-06-20T11:41:16.257Z,29.74
2023-06-20T11:51:18.652Z,29.68
2023-06-20T12:01:21.210Z,29.58
2023-06-20T12:11:23.652Z,29.44
2023-06-20T12:21:26.083Z,29.86
2023-06-20T12:31:28.714Z,29.82
2023-06-20T12:41:31.013Z,29.84
2023-06-20T12:51:33.487Z,30.11
2023-06-20T13:01:36.013Z,29.98
2023-06-20T13:11:38.398Z,29.93
2023-06-20T13:21:40.865Z,29.80
2023-06-20T13:31:43.525Z,30.22
2023-06-20T13:41:45.952Z,30.07
2023-06-20T13:51:48.435Z,30.13
2023-06-20T14:01:50.995Z,30.18
2023-06-20T14:11:53.442Z,30.26
2023-06-20T14:21:56.034Z,30.25
2023-06-20T14:31:58.500Z,30.11
2023-06-20T14:42:01.018Z,29.98
2023-06-20T14:52:03.490Z,30.36
2023-06-20T15:02:06.155Z,30.18
2023-06-20T15:12:08.686Z,30.61
2023-06-20T15:32:13.894Z,29.96
2023-06-20T15:42:16.421Z,29.86
2023-06-20T15:52:18.995Z,29.66
2023-06-20T16:02:21.542Z,29.81
2023-06-20T16:12:24.001Z,29.04
2023-06-20T16:22:26.438Z,28.45
2023-06-20T16:32:28.849Z,29.48
2023-06-20T16:42:31.199Z,29.50
2023-06-20T16:52:33.544Z,29.14
2023-06-20T17:02:35.930Z,28.93
2023-06-20T17:12:38.212Z,28.87
2023-06-20T17:22:40.496Z,28.44
2023-06-20T17:32:45.348Z,27.73
2023-06-20T17:42:45.135Z,27.85
2023-06-20T17:52:47.403Z,27.49
2023-06-20T18:02:49.794Z,27.38
2023-06-20T18:12:52.034Z,27.32
2023-06-20T18:22:54.276Z,27.13
2023-06-20T18:32:56.717Z,27.07
2023-06-20T18:42:58.871Z,27.23
2023-06-20T18:53:01.153Z,27.00
2023-06-20T19:03:03.384Z,26.82
2023-06-20T19:13:05.423Z,26.60
2023-06-20T19:33:09.750Z,26.27
2023-06-20T19:43:11.910Z,25.92
2023-06-20T19:53:14.082Z,25.83
2023-06-20T20:03:17.230Z,25.73
2023-06-20T20:13:18.558Z,25.57
2023-06-20T20:23:34.103Z,25.47
2023-06-20T20:33:23.289Z,25.36
2023-06-20T20:43:24.434Z,25.09
2023-06-20T20:53:26.444Z,24.97
2023-06-20T21:03:28.564Z,24.62
2023-06-20T21:13:30.229Z,24.48
2023-06-20T21:23:32.129Z,24.45
2023-06-20T21:33:34.076Z,24.32
2023-06-20T21:43:36.002Z,24.01
2023-06-20T21:53:37.939Z,23.80
2023-06-20T22:03:39.960Z,23.78
2023-06-20T22:13:41.784Z,23.78
2023-06-20T22:23:43.694Z,23.43
2023-06-20T22:33:45.517Z,23.35
2023-06-20T22:43:47.324Z,23.31
2023-06-20T22:53:49.155Z,23.02
2023-06-20T23:03:51.058Z,22.87
2023-06-20T23:13:52.762Z,22.70
2023-06-20T23:33:56.375Z,22.65
2023-06-20T23:43:58.180Z,22.60
2023-06-20T23:53:59.904Z,22.23
